sensor_id;sensor_type;location;lat;lon;timestamp;pressure;altitude;pressure_sealevel;temperature;humidity
46303;BME280;32029;51.358;5.628;2022-09-09T00:00:51;100559.44;;;16.35;100.00
46303;BME280;32029;51.358;5.628;2022-09-09T00:03:26;100557.97;;;16.32;100.00
46303;BME280;32029;51.358;5.628;2022-09-09T00:06:04;100553.72;;;16.30;100.00
46303;BME280;32029;51.358;5.628;2022-09-09T00:14:36;100541.13;;;16.15;100.00
46303;BME280;32029;51.358;5.628;2022-09-09T00:17:12;100531.22;;;16.08;100.00
46303;BME280;32029;51.358;5.628;2022-09-09T00:22:19;100546.97;;;16.07;100.00
46303;BME280;32029;51.358;5.628;2022-09-09T00:24:53;100523.69;;;15.97;100.00
46303;BME280;32029;51.358;5.628;2022-09-09T00:27:40;100513.31;;;15.92;100.00
46303;BME280;32029;51.358;5.628;2022-09-09T00:32:46;100527.03;;;15.99;100.00
46303;BME280;32029;51.358;5.628;2022-09-09T00:35:38;100537.44;;;16.03;100.00
46303;BME280;32029;51.358;5.628;2022-09-09T00:38:12;100535.75;;;16.02;100.00
46303;BME280;32029;51.358;5.628;2022-09-09T00:40:53;100530.19;;;16.02;100.00
46303;BME280;32029;51.358;5.628;2022-09-09T00:43:29;100532.97;;;16.02;100.00
46303;BME280;32029;51.358;5.628;2022-09-09T00:46:21;100526.00;;;16.00;100.00
46303;BME280;32029;51.358;5.628;2022-09-09T00:51:29;100519.22;;;15.96;100.00
46303;BME280;32029;51.358;5.628;2022-09-09T00:56:38;100512.09;;;15.88;100.00
46303;BME280;32029;51.358;5.628;2022-09-09T00:59:27;100515.44;;;15.90;100.00
46303;BME280;32029;51.358;5.628;2022-09-09T01:01:57;100499.59;;;15.79;100.00
46303;BME280;32029;51.358;5.628;2022-09-09T01:04:31;100516.13;;;15.85;100.00
46303;BME280;32029;51.358;5.628;2022-09-09T01:07:20;100514.91;;;15.81;100.00
46303;BME280;32029;51.358;5.628;2022-09-09T01:09:58;100517.91;;;15.80;100.00
46303;BME280;32029;51.358;5.628;2022-09-09T01:12:41;100505.88;;;15.67;100.00
46303;BME280;32029;51.358;5.628;2022-09-09T01:15:15;100519.91;;;15.73;100.00
46303;BME280;32029;51.358;5.628;2022-09-09T01:20:18;100513.75;;;15.64;100.00
46303;BME280;32029;51.358;5.628;2022-09-09T01:22:52;100516.34;;;15.65;100.00
46303;BME280;32029;51.358;5.628;2022-09-09T01:28:32;100505.94;;;15.61;100.00
46303;BME280;32029;51.358;5.628;2022-09-09T01:31:03;100509.56;;;15.61;100.00
46303;BME280;32029;51.358;5.628;2022-09-09T01:33:30;100504.22;;;15.60;100.00
46303;BME280;32029;51.358;5.628;2022-09-09T01:36:17;100503.63;;;15.58;100.00
46303;BME280;32029;51.358;5.628;2022-09-09T01:38:46;100498.41;;;15.50;100.00
46303;BME280;32029;51.358;5.628;2022-09-09T01:41:13;100508.78;;;15.54;100.00
46303;BME280;32029;51.358;5.628;2022-09-09T01:43:40;100494.31;;;15.52;100.00
46303;BME280;32029;51.358;5.628;2022-09-09T01:46:07;100489.84;;;15.51;100.00
46303;BME280;32029;51.358;5.628;2022-09-09T01:48:34;100496.63;;;15.55;100.00
46303;BME280;32029;51.358;5.628;2022-09-09T01:51:01;100486.00;;;15.52;100.00
46303;BME280;32029;51.358;5.628;2022-09-09T01:53:28;100496.41;;;15.57;100.00
46303;BME280;32029;51.358;5.628;2022-09-09T01:56:20;100496.19;;;15.58;100.00
46303;BME280;32029;51.358;5.628;2022-09-09T02:07:00;100485.56;;;15.55;100.00
46303;BME280;32029;51.358;5.628;2022-09-09T02:09:29;100488.13;;;15.57;100.00
46303;BME280;32029;51.358;5.628;2022-09-09T02:12:03;100480.88;;;15.56;100.00
46303;BME280;32029;51.358;5.628;2022-09-09T02:14:41;100469.91;;;15.49;100.00
46303;BME280;32029;51.358;5.628;2022-09-09T02:17:10;100475.34;;;15.56;100.00
46303;BME280;32029;51.358;5.628;2022-09-09T02:19:44;100485.50;;;15.62;100.00
46303;BME280;32029;51.358;5.628;2022-09-09T02:22:17;100480.03;;;15.55;100.00
46303;BME280;32029;51.358;5.628;2022-09-09T02:24:45;100490.19;;;15.61;100.00
46303;BME280;32029;51.358;5.628;2022-09-09T02:27:13;100486.34;;;15.62;100.00
46303;BME280;32029;51.358;5.628;2022-09-09T02:29:43;100477.91;;;15.57;100.00
46303;BME280;32029;51.358;5.628;2022-09-09T02:32:18;100478.91;;;15.63;100.00
46303;BME280;32029;51.358;5.628;2022-09-09T02:34:57;100478.69;;;15.64;100.00
46303;BME280;32029;51.358;5.628;2022-09-09T02:37:32;100473.59;;;15.61;100.00
46303;BME280;32029;51.358;5.628;2022-09-09T02:40:03;100472.38;;;15.57;100.00
46303;BME280;32029;51.358;5.628;2022-09-09T02:42:38;100468.53;;;15.58;100.00
46303;BME280;32029;51.358;5.628;2022-09-09T02:45:05;100463.91;;;15.52;100.00
46303;BME280;32029;51.358;5.628;2022-09-09T02:47:58;100479.97;;;15.62;100.00
46303;BME280;32029;51.358;5.628;2022-09-09T02:50:33;100468.97;;;15.55;100.00
46303;BME280;32029;51.358;5.628;2022-09-09T02:53:18;100474.69;;;15.60;100.00
46303;BME280;32029;51.358;5.628;2022-09-09T02:55:52;100474.69;;;15.60;100.00
46303;BME280;32029;51.358;5.628;2022-09-09T02:58:21;100462.59;;;15.55;100.00
46303;BME280;32029;51.358;5.628;2022-09-09T03:00:50;100472.75;;;15.61;100.00
46303;BME280;32029;51.358;5.628;2022-09-09T03:03:17;100464.91;;;15.58;100.00
46303;BME280;32029;51.358;5.628;2022-09-09T03:05:45;100476.38;;;15.61;100.00
46303;BME280;32029;51.358;5.628;2022-09-09T03:08:12;100475.28;;;15.62;100.00
46303;BME280;32029;51.358;5.628;2022-09-09T03:10:40;100469.34;;;15.65;100.00
46303;BME280;32029;51.358;5.628;2022-09-09T03:13:07;100474.41;;;15.68;100.00
46303;BME280;32029;51.358;5.628;2022-09-09T03:15:34;100476.56;;;15.66;100.00
46303;BME280;32029;51.358;5.628;2022-09-09T03:18:01;100470.72;;;15.75;100.00
46303;BME280;32029;51.358;5.628;2022-09-09T03:20:29;100474.72;;;15.79;100.00
46303;BME280;32029;51.358;5.628;2022-09-09T03:22:57;100477.47;;;15.79;100.00
46303;BME280;32029;51.358;5.628;2022-09-09T03:25:25;100474.88;;;15.84;100.00
46303;BME280;32029;51.358;5.628;2022-09-09T03:27:54;100474.25;;;15.82;100.00
46303;BME280;32029;51.358;5.628;2022-09-09T03:30:22;100479.94;;;15.87;100.00
46303;BME280;32029;51.358;5.628;2022-09-09T03:32:49;100487.78;;;15.90;100.00
46303;BME280;32029;51.358;5.628;2022-09-09T03:35:16;100464.09;;;15.76;100.00
46303;BME280;32029;51.358;5.628;2022-09-09T03:37:43;100481.00;;;15.86;100.00
46303;BME280;32029;51.358;5.628;2022-09-09T03:40:10;100476.19;;;15.81;100.00
46303;BME280;32029;51.358;5.628;2022-09-09T03:42:39;100483.94;;;15.91;100.00
46303;BME280;32029;51.358;5.628;2022-09-09T03:45:08;100485.16;;;15.95;100.00
46303;BME280;32029;51.358;5.628;2022-09-09T03:47:35;100483.03;;;15.97;100.00
46303;BME280;32029;51.358;5.628;2022-09-09T03:50:03;100495.06;;;16.03;100.00
46303;BME280;32029;51.358;5.628;2022-09-09T03:52:31;100494.84;;;16.04;100.00
46303;BME280;32029;51.358;5.628;2022-09-09T03:54:57;100491.84;;;16.06;100.00
46303;BME280;32029;51.358;5.628;2022-09-09T03:57:24;100467.50;;;15.96;100.00
46303;BME280;32029;51.358;5.628;2022-09-09T03:59:51;100486.69;;;16.09;100.00
46303;BME280;32029;51.358;5.628;2022-09-09T04:02:17;100486.09;;;16.07;100.00
46303;BME280;32029;51.358;5.628;2022-09-09T04:04:44;100477.78;;;16.07;100.00
46303;BME280;32029;51.358;5.628;2022-09-09T04:07:11;100485.78;;;16.15;100.00
46303;BME280;32029;51.358;5.628;2022-09-09T04:09:38;100485.28;;;16.18;100.00
46303;BME280;32029;51.358;5.628;2022-09-09T04:12:05;100483.16;;;16.21;100.00
46303;BME280;32029;51.358;5.628;2022-09-09T04:14:32;100478.25;;;16.23;100.00
46303;BME280;32029;51.358;5.628;2022-09-09T04:16:59;100478.59;;;16.26;100.00
46303;BME280;32029;51.358;5.628;2022-09-09T04:19:26;100481.53;;;16.31;100.00
46303;BME280;32029;51.358;5.628;2022-09-09T04:21:53;100470.84;;;16.35;100.00
46303;BME280;32029;51.358;5.628;2022-09-09T04:24:20;100469.75;;;16.36;100.00
46303;BME280;32029;51.358;5.628;2022-09-09T04:26:48;100462.66;;;16.40;100.00
46303;BME280;32029;51.358;5.628;2022-09-09T04:29:16;100472.19;;;16.44;100.00
46303;BME280;32029;51.358;5.628;2022-09-09T04:31:43;100464.97;;;16.43;100.00
46303;BME280;32029;51.358;5.628;2022-09-09T04:34:11;100461.13;;;16.44;100.00
46303;BME280;32029;51.358;5.628;2022-09-09T04:36:37;100467.41;;;16.51;100.00
46303;BME280;32029;51.358;5.628;2022-09-09T04:39:06;100460.66;;;16.47;100.00
46303;BME280;32029;51.358;5.628;2022-09-09T04:41:32;100470.31;;;16.56;100.00
46303;BME280;32029;51.358;5.628;2022-09-09T04:43:59;100454.28;;;16.47;100.00
46303;BME280;32029;51.358;5.628;2022-09-09T04:46:27;100444.41;;;16.51;100.00
46303;BME280;32029;51.358;5.628;2022-09-09T04:48:53;100452.00;;;16.55;100.00
46303;BME280;32029;51.358;5.628;2022-09-09T04:51:20;100454.16;;;16.53;100.00
46303;BME280;32029;51.358;5.628;2022-09-09T04:53:47;100440.19;;;16.48;100.00
46303;BME280;32029;51.358;5.628;2022-09-09T04:56:17;100456.31;;;16.51;100.00
46303;BME280;32029;51.358;5.628;2022-09-09T04:58:44;100457.63;;;16.49;100.00
46303;BME280;32029;51.358;5.628;2022-09-09T05:01:17;100457.72;;;16.42;100.00
46303;BME280;32029;51.358;5.628;2022-09-09T05:03:45;100457.38;;;16.38;100.00
46303;BME280;32029;51.358;5.628;2022-09-09T05:06:14;100461.81;;;16.39;100.00
46303;BME280;32029;51.358;5.628;2022-09-09T05:08:43;100457.38;;;16.38;100.00
46303;BME280;32029;51.358;5.628;2022-09-09T05:11:18;100462.53;;;16.35;100.00
46303;BME280;32029;51.358;5.628;2022-09-09T05:13:47;100457.00;;;16.35;100.00
46303;BME280;32029;51.358;5.628;2022-09-09T05:16:14;100456.75;;;16.36;100.00
46303;BME280;32029;51.358;5.628;2022-09-09T05:18:41;100445.16;;;16.28;100.00
46303;BME280;32029;51.358;5.628;2022-09-09T05:21:12;100461.91;;;16.33;100.00
46303;BME280;32029;51.358;5.628;2022-09-09T05:23:39;100443.94;;;16.24;100.00
46303;BME280;32029;51.358;5.628;2022-09-09T05:26:09;100455.78;;;16.31;100.00
46303;BME280;32029;51.358;5.628;2022-09-09T05:28:37;100462.59;;;16.28;100.00
46303;BME280;32029;51.358;5.628;2022-09-09T05:31:06;100453.34;;;16.23;100.00
46303;BME280;32029;51.358;5.628;2022-09-09T05:33:38;100449.94;;;16.21;100.00
46303;BME280;32029;51.358;5.628;2022-09-09T05:36:13;100461.78;;;16.28;100.00
46303;BME280;32029;51.358;5.628;2022-09-09T05:38:40;100446.09;;;16.22;100.00
46303;BME280;32029;51.358;5.628;2022-09-09T05:41:07;100449.84;;;16.27;100.00
46303;BME280;32029;51.358;5.628;2022-09-09T05:43:34;100452.00;;;16.25;100.00
46303;BME280;32029;51.358;5.628;2022-09-09T05:46:07;100467.91;;;16.30;100.00
46303;BME280;32029;51.358;5.628;2022-09-09T05:48:37;100470.66;;;16.30;100.00
46303;BME280;32029;51.358;5.628;2022-09-09T05:51:05;100462.84;;;16.27;100.00
46303;BME280;32029;51.358;5.628;2022-09-09T05:53:33;100467.22;;;16.34;100.00
46303;BME280;32029;51.358;5.628;2022-09-09T05:56:04;100472.28;;;16.37;100.00
46303;BME280;32029;51.358;5.628;2022-09-09T05:58:34;100473.50;;;16.41;100.00
46303;BME280;32029;51.358;5.628;2022-09-09T06:01:09;100464.97;;;16.43;100.00
46303;BME280;32029;51.358;5.628;2022-09-09T06:03:39;100476.19;;;16.48;100.00
46303;BME280;32029;51.358;5.628;2022-09-09T06:06:09;100478.69;;;16.50;100.00
46303;BME280;32029;51.358;5.628;2022-09-09T06:08:38;100480.16;;;16.52;100.00
46303;BME280;32029;51.358;5.628;2022-09-09T06:11:11;100481.38;;;16.56;100.00
46303;BME280;32029;51.358;5.628;2022-09-09T06:13:38;100473.69;;;16.58;100.00
46303;BME280;32029;51.358;5.628;2022-09-09T06:16:17;100481.50;;;16.61;100.00
46303;BME280;32029;51.358;5.628;2022-09-09T06:18:45;100465.53;;;16.63;100.00
46303;BME280;32029;51.358;5.628;2022-09-09T06:21:23;100459.97;;;16.63;100.00
46303;BME280;32029;51.358;5.628;2022-09-09T06:23:50;100467.56;;;16.68;100.00
46303;BME280;32029;51.358;5.628;2022-09-09T06:26:28;100470.88;;;16.77;100.00
46303;BME280;32029;51.358;5.628;2022-09-09T06:28:57;100452.56;;;16.76;100.00
46303;BME280;32029;51.358;5.628;2022-09-09T06:31:29;100457.78;;;16.84;100.00
46303;BME280;32029;51.358;5.628;2022-09-09T06:33:58;100451.28;;;16.90;100.00
46303;BME280;32029;51.358;5.628;2022-09-09T06:36:30;100462.13;;;16.92;100.00
46303;BME280;32029;51.358;5.628;2022-09-09T06:38:57;100458.25;;;16.93;100.00
46303;BME280;32029;51.358;5.628;2022-09-09T06:41:26;100466.59;;;17.04;100.00
46303;BME280;32029;51.358;5.628;2022-09-09T06:43:53;100457.34;;;17.10;100.00
46303;BME280;32029;51.358;5.628;2022-09-09T06:46:29;100461.31;;;17.14;100.00
46303;BME280;32029;51.358;5.628;2022-09-09T06:48:57;100457.44;;;17.15;100.00
46303;BME280;32029;51.358;5.628;2022-09-09T06:51:31;100459.88;;;17.12;100.00
46303;BME280;32029;51.358;5.628;2022-09-09T06:54:00;100465.91;;;17.21;100.00
46303;BME280;32029;51.358;5.628;2022-09-09T06:56:32;100463.25;;;17.26;100.00
46303;BME280;32029;51.358;5.628;2022-09-09T06:59:02;100452.16;;;17.26;100.00
46303;BME280;32029;51.358;5.628;2022-09-09T07:01:33;100447.47;;;17.26;100.00
46303;BME280;32029;51.358;5.628;2022-09-09T07:04:01;100462.31;;;17.32;100.00
46303;BME280;32029;51.358;5.628;2022-09-09T07:06:32;100443.59;;;17.27;100.00
46303;BME280;32029;51.358;5.628;2022-09-09T07:09:07;100461.69;;;17.42;100.00
46303;BME280;32029;51.358;5.628;2022-09-09T07:11:38;100467.59;;;17.45;100.00
46303;BME280;32029;51.358;5.628;2022-09-09T07:14:05;100464.34;;;17.48;100.00
46303;BME280;32029;51.358;5.628;2022-09-09T07:16:33;100460.38;;;17.56;100.00
46303;BME280;32029;51.358;5.628;2022-09-09T07:19:04;100475.19;;;17.61;100.00
46303;BME280;32029;51.358;5.628;2022-09-09T07:21:32;100478.06;;;17.67;100.00
46303;BME280;32029;51.358;5.628;2022-09-09T07:23:59;100475.09;;;17.68;100.00
46303;BME280;32029;51.358;5.628;2022-09-09T07:26:28;100476.19;;;17.79;100.00
46303;BME280;32029;51.358;5.628;2022-09-09T07:28:55;100470.94;;;17.94;100.00
46303;BME280;32029;51.358;5.628;2022-09-09T07:31:32;100461.63;;;18.12;100.00
46303;BME280;32029;51.358;5.628;2022-09-09T07:34:00;100460.00;;;18.28;100.00
46303;BME280;32029;51.358;5.628;2022-09-09T07:36:33;100460.91;;;18.45;100.00
46303;BME280;32029;51.358;5.628;2022-09-09T07:39:06;100454.63;;;18.50;100.00
46303;BME280;32029;51.358;5.628;2022-09-09T07:41:34;100467.44;;;18.68;100.00
46303;BME280;32029;51.358;5.628;2022-09-09T07:44:11;100431.63;;;18.54;100.00
46303;BME280;32029;51.358;5.628;2022-09-09T07:46:38;100475.66;;;18.74;100.00
46303;BME280;32029;51.358;5.628;2022-09-09T07:49:11;100469.84;;;18.76;100.00
46303;BME280;32029;51.358;5.628;2022-09-09T07:51:39;100475.50;;;18.81;100.00
46303;BME280;32029;51.358;5.628;2022-09-09T07:54:10;100470.63;;;18.88;100.00
46303;BME280;32029;51.358;5.628;2022-09-09T07:56:40;100467.34;;;18.91;100.00
46303;BME280;32029;51.358;5.628;2022-09-09T07:59:08;100463.56;;;18.97;100.00
46303;BME280;32029;51.358;5.628;2022-09-09T08:01:40;100467.78;;;19.00;100.00
46303;BME280;32029;51.358;5.628;2022-09-09T08:04:12;100467.72;;;19.12;100.00
46303;BME280;32029;51.358;5.628;2022-09-09T08:06:45;100475.38;;;19.21;100.00
46303;BME280;32029;51.358;5.628;2022-09-09T08:09:14;100473.59;;;19.32;100.00
46303;BME280;32029;51.358;5.628;2022-09-09T08:11:42;100476.53;;;19.42;100.00
46303;BME280;32029;51.358;5.628;2022-09-09T08:14:11;100470.47;;;19.45;100.00
46303;BME280;32029;51.358;5.628;2022-09-09T08:16:48;100479.03;;;19.61;99.30
46303;BME280;32029;51.358;5.628;2022-09-09T08:19:16;100483.09;;;19.70;97.20
46303;BME280;32029;51.358;5.628;2022-09-09T08:21:45;100472.50;;;19.67;96.83
46303;BME280;32029;51.358;5.628;2022-09-09T08:24:13;100490.16;;;19.77;95.01
46303;BME280;32029;51.358;5.628;2022-09-09T08:26:44;100478.78;;;19.79;94.94
46303;BME280;32029;51.358;5.628;2022-09-09T08:29:12;100481.06;;;19.82;93.33
46303;BME280;32029;51.358;5.628;2022-09-09T08:31:43;100490.81;;;19.85;93.08
46303;BME280;32029;51.358;5.628;2022-09-09T08:34:10;100475.63;;;19.92;95.19
46303;BME280;32029;51.358;5.628;2022-09-09T08:36:40;100476.63;;;20.03;94.80
46303;BME280;32029;51.358;5.628;2022-09-09T08:39:10;100488.84;;;20.24;91.96
46303;BME280;32029;51.358;5.628;2022-09-09T08:47:09;100492.47;;;20.46;91.29
46303;BME280;32029;51.358;5.628;2022-09-09T08:55:02;100496.09;;;20.47;88.54
46303;BME280;32029;51.358;5.628;2022-09-09T08:57:32;100491.97;;;20.49;89.04
46303;BME280;32029;51.358;5.628;2022-09-09T09:00:01;100480.84;;;20.49;89.03
46303;BME280;32029;51.358;5.628;2022-09-09T09:02:48;100490.53;;;20.69;87.78
46303;BME280;32029;51.358;5.628;2022-09-09T09:05:42;100485.91;;;20.79;88.13
46303;BME280;32029;51.358;5.628;2022-09-09T09:11:05;100502.97;;;20.83;84.95
46303;BME280;32029;51.358;5.628;2022-09-09T09:13:34;100509.56;;;20.77;85.81
46303;BME280;32029;51.358;5.628;2022-09-09T09:16:17;100501.16;;;20.72;84.40
46303;BME280;32029;51.358;5.628;2022-09-09T09:18:47;100514.00;;;20.73;84.91
46303;BME280;32029;51.358;5.628;2022-09-09T09:24:20;100509.09;;;20.85;85.34
46303;BME280;32029;51.358;5.628;2022-09-09T09:26:48;100510.38;;;20.99;84.95
46303;BME280;32029;51.358;5.628;2022-09-09T09:29:18;100514.94;;;21.11;84.04
46303;BME280;32029;51.358;5.628;2022-09-09T09:31:58;100505.97;;;21.09;83.89
46303;BME280;32029;51.358;5.628;2022-09-09T09:34:28;100511.53;;;21.03;83.73
46303;BME280;32029;51.358;5.628;2022-09-09T09:36:59;100498.28;;;20.94;83.48
46303;BME280;32029;51.358;5.628;2022-09-09T09:39:33;100497.97;;;20.90;83.16
46303;BME280;32029;51.358;5.628;2022-09-09T09:42:16;100508.09;;;20.96;82.94
46303;BME280;32029;51.358;5.628;2022-09-09T09:44:44;100508.63;;;20.93;83.11
46303;BME280;32029;51.358;5.628;2022-09-09T09:47:20;100506.09;;;20.92;83.12
46303;BME280;32029;51.358;5.628;2022-09-09T09:49:58;100500.84;;;20.95;82.47
46303;BME280;32029;51.358;5.628;2022-09-09T09:52:29;100506.97;;;20.97;82.66
46303;BME280;32029;51.358;5.628;2022-09-09T09:54:57;100505.13;;;21.08;83.04
46303;BME280;32029;51.358;5.628;2022-09-09T09:57:29;100508.91;;;21.24;82.23
46303;BME280;32029;51.358;5.628;2022-09-09T10:00:13;100505.16;;;21.40;83.69
46303;BME280;32029;51.358;5.628;2022-09-09T10:02:42;100490.16;;;21.46;82.83
46303;BME280;32029;51.358;5.628;2022-09-09T10:05:17;100518.25;;;21.72;83.68
46303;BME280;32029;51.358;5.628;2022-09-09T10:07:44;100513.84;;;21.81;82.24
46303;BME280;32029;51.358;5.628;2022-09-09T10:10:25;100513.88;;;21.86;81.66
46303;BME280;32029;51.358;5.628;2022-09-09T10:13:14;100514.44;;;21.88;80.43
46303;BME280;32029;51.358;5.628;2022-09-09T10:15:51;100508.25;;;21.81;79.66
46303;BME280;32029;51.358;5.628;2022-09-09T10:18:47;100512.94;;;21.70;79.62
46303;BME280;32029;51.358;5.628;2022-09-09T10:21:47;100504.22;;;21.62;79.95
46303;BME280;32029;51.358;5.628;2022-09-09T10:24:48;100512.59;;;21.62;81.38
46303;BME280;32029;51.358;5.628;2022-09-09T10:30:24;100513.16;;;21.64;81.37
46303;BME280;32029;51.358;5.628;2022-09-09T10:35:51;100522.03;;;21.56;84.46
46303;BME280;32029;51.358;5.628;2022-09-09T10:41:50;100515.28;;;21.46;85.39
46303;BME280;32029;51.358;5.628;2022-09-09T10:55:20;100529.13;;;20.82;88.33
46303;BME280;32029;51.358;5.628;2022-09-09T10:57:50;100536.63;;;20.54;90.22
46303;BME280;32029;51.358;5.628;2022-09-09T11:02:52;100533.47;;;20.07;94.66
46303;BME280;32029;51.358;5.628;2022-09-09T11:05:27;100528.91;;;19.79;94.98
46303;BME280;32029;51.358;5.628;2022-09-09T11:08:18;100539.78;;;19.47;96.28
46303;BME280;32029;51.358;5.628;2022-09-09T11:10:56;100524.31;;;19.22;98.33
46303;BME280;32029;51.358;5.628;2022-09-09T11:16:28;100544.44;;;18.96;100.00
46303;BME280;32029;51.358;5.628;2022-09-09T11:19:07;100549.31;;;18.89;100.00
46303;BME280;32029;51.358;5.628;2022-09-09T11:21:45;100545.28;;;18.96;100.00
46303;BME280;32029;51.358;5.628;2022-09-09T11:24:33;100545.16;;;19.20;100.00
46303;BME280;32029;51.358;5.628;2022-09-09T11:27:17;100531.66;;;19.45;100.00
46303;BME280;32029;51.358;5.628;2022-09-09T11:29:57;100534.13;;;19.75;100.00
46303;BME280;32029;51.358;5.628;2022-09-09T11:35:52;100537.81;;;20.20;99.24
46303;BME280;32029;51.358;5.628;2022-09-09T11:38:31;100538.03;;;20.35;97.13
46303;BME280;32029;51.358;5.628;2022-09-09T11:41:04;100535.38;;;20.45;96.87
46303;BME280;32029;51.358;5.628;2022-09-09T11:43:40;100531.66;;;20.57;96.91
46303;BME280;32029;51.358;5.628;2022-09-09T11:46:09;100529.03;;;20.72;96.25
46303;BME280;32029;51.358;5.628;2022-09-09T11:48:41;100522.41;;;20.78;94.28
46303;BME280;32029;51.358;5.628;2022-09-09T11:53:53;100522.09;;;21.01;93.52
46303;BME280;32029;51.358;5.628;2022-09-09T11:56:32;100522.75;;;21.14;93.45
46303;BME280;32029;51.358;5.628;2022-09-09T11:59:03;100517.28;;;21.24;92.39
46303;BME280;32029;51.358;5.628;2022-09-09T12:01:36;100519.84;;;21.31;91.59
46303;BME280;32029;51.358;5.628;2022-09-09T12:04:13;100515.13;;;21.31;90.68
46303;BME280;32029;51.358;5.628;2022-09-09T12:06:56;100528.47;;;21.29;91.62
46303;BME280;32029;51.358;5.628;2022-09-09T12:09:43;100513.75;;;21.34;90.38
46303;BME280;32029;51.358;5.628;2022-09-09T12:19:40;100522.91;;;21.29;90.93
46303;BME280;32029;51.358;5.628;2022-09-09T12:25:14;100517.38;;;21.66;88.90
46303;BME280;32029;51.358;5.628;2022-09-09T12:30:17;100513.88;;;21.86;87.75
46303;BME280;32029;51.358;5.628;2022-09-09T12:32:45;100511.19;;;22.01;88.12
46303;BME280;32029;51.358;5.628;2022-09-09T12:35:20;100509.81;;;22.09;86.57
46303;BME280;32029;51.358;5.628;2022-09-09T12:37:52;100486.88;;;22.07;86.18
46303;BME280;32029;51.358;5.628;2022-09-09T12:40:29;100500.94;;;22.17;85.65
46303;BME280;32029;51.358;5.628;2022-09-09T12:42:57;100506.84;;;22.21;85.22
46303;BME280;32029;51.358;5.628;2022-09-09T12:45:29;100504.03;;;22.21;82.92
46303;BME280;32029;51.358;5.628;2022-09-09T12:48:01;100496.72;;;22.15;84.43
46303;BME280;32029;51.358;5.628;2022-09-09T12:50:33;100498.94;;;22.13;84.38
46303;BME280;32029;51.358;5.628;2022-09-09T12:53:10;100499.56;;;22.20;84.53
46303;BME280;32029;51.358;5.628;2022-09-09T12:55:50;100498.75;;;22.30;83.55
46303;BME280;32029;51.358;5.628;2022-09-09T12:58:19;100491.25;;;22.35;82.56
46303;BME280;32029;51.358;5.628;2022-09-09T13:00:53;100493.19;;;22.35;83.52
46303;BME280;32029;51.358;5.628;2022-09-09T13:03:23;100491.81;;;22.42;82.89
46303;BME280;32029;51.358;5.628;2022-09-09T13:05:53;100494.94;;;22.51;80.96
46303;BME280;32029;51.358;5.628;2022-09-09T13:08:27;100483.47;;;22.58;80.84
46303;BME280;32029;51.358;5.628;2022-09-09T13:11:07;100471.22;;;22.74;79.74
46303;BME280;32029;51.358;5.628;2022-09-09T13:13:38;100484.16;;;22.95;79.70
46303;BME280;32029;51.358;5.628;2022-09-09T13:16:19;100470.72;;;23.13;79.92
46303;BME280;32029;51.358;5.628;2022-09-09T13:18:47;100474.66;;;23.27;79.34
46303;BME280;32029;51.358;5.628;2022-09-09T13:21:15;100468.47;;;23.40;78.28
46303;BME280;32029;51.358;5.628;2022-09-09T13:23:49;100469.03;;;23.47;78.67
46303;BME280;32029;51.358;5.628;2022-09-09T13:26:23;100475.19;;;23.55;76.54
46303;BME280;32029;51.358;5.628;2022-09-09T13:28:50;100473.25;;;23.50;75.80
46303;BME280;32029;51.358;5.628;2022-09-09T13:31:21;100473.81;;;23.42;75.25
46303;BME280;32029;51.358;5.628;2022-09-09T13:33:49;100467.41;;;23.26;76.14
46303;BME280;32029;51.358;5.628;2022-09-09T13:36:27;100455.09;;;23.02;77.83
46303;BME280;32029;51.358;5.628;2022-09-09T13:38:58;100460.63;;;22.86;77.16
46303;BME280;32029;51.358;5.628;2022-09-09T13:41:33;100465.34;;;22.70;78.94
46303;BME280;32029;51.358;5.628;2022-09-09T13:44:03;100464.53;;;22.75;80.30
46303;BME280;32029;51.358;5.628;2022-09-09T13:46:41;100413.63;;;22.68;79.17
46303;BME280;32029;51.358;5.628;2022-09-09T13:51:45;100434.34;;;23.13;77.25
46303;BME280;32029;51.358;5.628;2022-09-09T13:54:15;100453.66;;;23.35;76.84
46303;BME280;32029;51.358;5.628;2022-09-09T13:56:43;100459.53;;;23.43;75.54
46303;BME280;32029;51.358;5.628;2022-09-09T13:59:13;100461.50;;;23.43;75.08
46303;BME280;32029;51.358;5.628;2022-09-09T14:01:40;100452.84;;;23.44;75.07
46303;BME280;32029;51.358;5.628;2022-09-09T14:04:09;100448.34;;;23.38;75.46
46303;BME280;32029;51.358;5.628;2022-09-09T14:06:37;100451.97;;;23.49;75.54
46303;BME280;32029;51.358;5.628;2022-09-09T14:09:06;100450.56;;;23.57;74.25
46303;BME280;32029;51.358;5.628;2022-09-09T14:11:37;100455.56;;;23.60;74.13
46303;BME280;32029;51.358;5.628;2022-09-09T14:14:04;100446.63;;;23.63;74.21
46303;BME280;32029;51.358;5.628;2022-09-09T14:16:31;100441.88;;;23.53;74.56
46303;BME280;32029;51.358;5.628;2022-09-09T14:18:59;100441.56;;;23.60;73.71
46303;BME280;32029;51.358;5.628;2022-09-09T14:21:27;100454.50;;;23.66;74.05
46303;BME280;32029;51.358;5.628;2022-09-09T14:23:54;100450.00;;;23.70;73.75
46303;BME280;32029;51.358;5.628;2022-09-09T14:26:21;100452.78;;;23.65;72.23
46303;BME280;32029;51.358;5.628;2022-09-09T14:28:48;100449.75;;;23.46;72.36
46303;BME280;32029;51.358;5.628;2022-09-09T14:31:16;100455.91;;;23.22;72.83
46303;BME280;32029;51.358;5.628;2022-09-09T14:33:46;100454.25;;;23.06;74.12
46303;BME280;32029;51.358;5.628;2022-09-09T14:36:14;100452.28;;;23.07;74.44
46303;BME280;32029;51.358;5.628;2022-09-09T14:38:41;100450.59;;;23.16;73.42
46303;BME280;32029;51.358;5.628;2022-09-09T14:41:12;100450.31;;;23.22;74.06